KCRX/CRX METAR and TAF weather

Enter ICAO airport designator
Station Type Date Time Source
KCRX METAR 2020/11/27 02:55 UTC NOAA

KCRX 270255Z AUTO 00000KT 10SM CLR 06/05 A3011 RMK AO2


Station Type Date Time Source
KCRX Decoded METAR 2020/11/27 02:55 UTC NOAA

Station name not available
Nov 26, 2020 - 09:55 PM EST / 2020.11.27 0255 UTC
Wind: Calm:0
Visibility: 10 mile(s):0
Sky conditions: clear
Temperature: 42 F (6 C)
Dew Point: 41 F (5 C)
Relative Humidity: 93%
Pressure (altimeter): 30.11 in. Hg (1019 hPa)
ob: KCRX 270255Z AUTO 00000KT 10SM CLR 06/05 A3011 RMK AO2
cycle: 3

Station Type Date Time Source
KCRX TAF UTC NOAA

Error!

Example: see airport list